METAR AND TAF INFORMATION
METAR FOR LFBC
ADDS - METARS form results

(1251 UTC 27 June 2019)
Data provider http://aviationweather.gov/metar/data/
 
METAR text: LFBC 271230Z AUTO 07014KT CAVOK 36/19 Q1016 NOSIG
Conditions at: LFBC (CAZAUX POND (FAF, FR) observed 1230 UTC 27 June 2019
Temperature: 36.0°C (97°F)
Dewpoint: 19.0°C (66°F) [RH = 37%]
Pressure (altimeter): 30.00 inches Hg (1016.0 mb)
Winds: from the ENE (70 degrees) at 16 MPH (14 knots; 7.2 m/s)
Visibility: 6 or more miles (10+ km)
Ceiling: ceiling and visibility are OK
Clouds: unknown
Weather: no significant weather observed at this time

METAR text: LFBC 271200Z AUTO 08009KT 040V110 CAVOK 35/21 Q1017 NOSIG
Conditions at: LFBC (CAZAUX POND (FAF, FR) observed 1200 UTC 27 June 2019
Temperature: 35.0°C (95°F)
Dewpoint: 21.0°C (70°F) [RH = 44%]
Pressure (altimeter): 30.03 inches Hg (1017.0 mb)
Winds: from the E (80 degrees) at 10 MPH (9 knots; 4.6 m/s)
Visibility: 6 or more miles (10+ km)
Ceiling: ceiling and visibility are OK
Clouds: unknown
Weather: no significant weather observed at this time

Forecast for: LFBC (CAZAUX POND (FAF, FR)
Text: TAF LFBC 270800Z 2709/2809 09010KT 9999 SCT007
Forecast period: 0900 to 2200 UTC 27 June 2019
Forecast type: FROM: standard forecast or significant change
Winds: from the E (90 degrees) at 12 MPH (10 knots; 5.1 m/s)
Visibility: 6 or more miles 10+ km)
Ceiling: at least 12,000 feet AGL
Clouds: scattered clouds at 700 feet AGL
Weather: no significant weather forecast for this period
Text: BECMG 2722/2724 24010G20KT OVC003
Forecast period: 2200 UTC 27 June 2019 to 0800 UTC 28 June 2019
Forecast type: BECOMING: Conditions expected to become as follows by 0000 UTC 28 June 2019
Winds: from the WSW (240 degrees) at 12 MPH (10 knots; 5.1 m/s)
gusting to 23 MPH (20 knots; 10.3 m/s)
Visibility: 6 or more miles 10+ km)
Ceiling: 300 feet AGL
Clouds: overcast cloud deck at 300 feet AGL
Weather: no significant weather forecast for this period
Text: BECMG 2808/2809 BKN012
Forecast period: 0800 to 0900 UTC 28 June 2019
Forecast type: BECOMING: Conditions expected to become as follows by 0900 UTC 28 June 2019
Winds: from the WSW (240 degrees) at 12 MPH (10 knots; 5.1 m/s)
gusting to 23 MPH (20 knots; 10.3 m/s)
Visibility: 6 or more miles 10+ km)
Ceiling: 1200 feet AGL
Clouds: broken clouds at 1200 feet AGL
Weather: no significant weather forecast for this period

 AIRPORT MAP

 RUNWAY INFORMATION
Runway 06 Runway length 7900 ft Runway width 148 ft
Runway elevation 74 ft Runway displaced threshold 0 ft Runway heading 57
Runway 24 Runway length 7900 ft Runway width 148 ft
Runway elevation 83 ft Runway displaced threshold 0 ft Runway heading 237

 AIRPORT FREQUENCIES
Type APP Name APP Frequency 142.45 MHZ
Type TWR Name TWR Frequency 118.4 MHZ

 AIRPORT NEAR NAVIGATION AIDS
Type TACAN Name Cazaux Frequency 110800 KHZ
Type NDB Name Cazaux Frequency 382 KHZ